createdAt,value
2022-08-09T00:00:00.000Z,6.98
2022-08-09T00:15:00.000Z,7.68
2022-08-09T00:30:00.000Z,7.81
2022-08-09T00:45:00.000Z,7.47
2022-08-09T01:00:00.000Z,7.64
2022-08-09T01:15:00.000Z,8.66
2022-08-09T01:30:00.000Z,8.36
2022-08-09T01:45:00.000Z,8.59
2022-08-09T02:00:00.000Z,7.87
2022-08-09T02:15:00.000Z,8.19
2022-08-09T02:30:00.000Z,8.05
2022-08-09T02:45:00.000Z,8.96
2022-08-09T03:00:00.000Z,9.93
2022-08-09T03:15:00.000Z,10.12
2022-08-09T03:30:00.000Z,10.65
2022-08-09T03:45:00.000Z,10.18
2022-08-09T04:00:00.000Z,10.42
2022-08-09T04:15:00.000Z,10.11
2022-08-09T04:30:00.000Z,10.51
2022-08-09T04:45:00.000Z,10.4
2022-08-09T05:00:00.000Z,9.89
2022-08-09T05:15:00.000Z,8.49
2022-08-09T05:30:00.000Z,8.22
2022-08-09T05:45:00.000Z,9.28
2022-08-09T06:00:00.000Z,8.81
2022-08-09T06:15:00.000Z,7.95
2022-08-09T06:30:00.000Z,7.08
2022-08-09T06:45:00.000Z,6.73
2022-08-09T07:00:00.000Z,5.25
2022-08-09T07:15:00.000Z,4.55
2022-08-09T07:30:00.000Z,4.19
2022-08-09T07:45:00.000Z,4.31
2022-08-09T08:00:00.000Z,4.27
2022-08-09T08:15:00.000Z,4.28
2022-08-09T08:30:00.000Z,4.22
2022-08-09T08:45:00.000Z,4.33
2022-08-09T09:00:00.000Z,4.24
2022-08-09T09:15:00.000Z,4.09
2022-08-09T09:30:00.000Z,4.2
2022-08-09T09:45:00.000Z,4.21
2022-08-09T10:00:00.000Z,4.16
2022-08-09T10:15:00.000Z,4.24
2022-08-09T10:30:00.000Z,4.21
2022-08-09T10:45:00.000Z,4.18
2022-08-09T11:00:00.000Z,4.21
2022-08-09T11:15:00.000Z,4.08
2022-08-09T11:30:00.000Z,4
2022-08-09T11:45:00.000Z,4.04
2022-08-09T12:00:00.000Z,4.08
2022-08-09T12:15:00.000Z,4.05
2022-08-09T12:30:00.000Z,4.07
2022-08-09T12:45:00.000Z,3.92
2022-08-09T13:00:00.000Z,4.07
2022-08-09T13:15:00.000Z,4.01
2022-08-09T13:30:00.000Z,3.98
2022-08-09T13:45:00.000Z,3.93
2022-08-09T14:00:00.000Z,3.86
2022-08-09T14:15:00.000Z,3.61
2022-08-09T14:30:00.000Z,3.48
2022-08-09T14:45:00.000Z,3.62
2022-08-09T15:00:00.000Z,3.58
2022-08-09T15:15:00.000Z,3.56
2022-08-09T15:30:00.000Z,3.28
2022-08-09T15:45:00.000Z,3.04
2022-08-09T16:00:00.000Z,3.21
2022-08-09T16:15:00.000Z,3.85
2022-08-09T16:30:00.000Z,3.96
2022-08-09T16:45:00.000Z,3.26
2022-08-09T17:00:00.000Z,4.04
2022-08-09T17:15:00.000Z,3.82
2022-08-09T17:30:00.000Z,3.8
2022-08-09T17:45:00.000Z,4.11
2022-08-09T18:15:00.000Z,6
2022-08-09T18:15:00.000Z,4.41
2022-08-09T18:30:00.000Z,4.44
2022-08-09T18:45:00.000Z,4.44
2022-08-09T19:00:00.000Z,6.28
2022-08-09T19:15:00.000Z,4.47
2022-08-09T19:30:00.000Z,4.34
2022-08-09T19:45:00.000Z,5.07
2022-08-09T20:00:00.000Z,5.18
2022-08-09T20:15:00.000Z,5.84
2022-08-09T20:30:00.000Z,5.44
2022-08-09T20:45:00.000Z,6.01
2022-08-09T21:00:00.000Z,11.58
2022-08-09T21:15:00.000Z,9.06
2022-08-09T21:30:00.000Z,8.21
2022-08-09T21:45:00.000Z,7.24
2022-08-09T22:00:00.000Z,6.94
2022-08-09T22:15:00.000Z,5.74
2022-08-09T22:30:00.000Z,5.13
2022-08-09T22:45:00.000Z,7.13
2022-08-09T23:00:00.000Z,7.05
2022-08-09T23:15:00.000Z,5.71
2022-08-09T23:30:00.000Z,5.78
2022-08-09T23:45:00.000Z,5.86
